Timeline UpdatesTrip UpdatesNews PostsPvt PostsTravel TipsAdmin PostsConv PostsFollowed PostsChat RequestsBlog PostsPNR Posts

Disclaimer
Search
 
 
Tue Jul 22, 2014 20:59:27 ISTHomeTrainsΣChainsAtlasPNRForumGalleryNewsFAQTripsMembersLoginFeedback
No Recent News for this Train
Other Trains in the News **new
Latest...
..
Sat Jul 12, 2014 (08:04AM)
⇐ Return Journey: Train# 13134

13133/Sealdah - Varanasi (Upper India) Express

Feb 08 2014 (8:50AM)
Change Departure Station:
Change Arrival Station:
Post a Train Travel TipPost a Train Travel Tip **new
Post a Comment/Question/Picture/VideoPost a Comment/Question/Picture/Video
Pantry/Catering
✕ NO Pantry Car
✕ NO Catering
RSA - Rake Sharing
13119/Sealdah - Old Delhi Express
Rake/Coach Composition
LOCO-SLR-GS-GS-GS-GS-GS-GS-B1-S1-S2-S3-S4-GS-GS-SLR
Loco
BWN WDM-3A
News    PNR    Forum    Time-Table    Availability    Fare Chart    Map    Arr/Dep History    Trips    Gallery    ΣChains    X/O    Timeline    
Travel Time: 24h 25m    80 halts    Distance: 871 km    Avg Speed: 35 km/hr
Type: Mail/Express
Zone: ER/Eastern
Departs @ 21:15
Platform# 7
 MTW FS
Kolkata Sealdah/SDAH 
Arrives @ 21:40 +1 night
Platform# ???
S TWT S
Varanasi Junction/BSB 

80 halts. 205 intermediate Stations between Kolkata Sealdah and Varanasi Junction

Show ALL intermediate Stations  Show Old Time-Table

#CodeStation NameX/OArrivesAvgDepartsAvgHaltPFDay#KmSpeedElevZoneAddress
1SDAH»Kolkata Sealdah (20)»  -21:15-710.0258mERPh : 033-23503535 (For North: APC Roy Road) Kolkata 700014, West Bengal
2BNXRBidhan Nagar Road (4)  21:23-21:24-1m213.3378mERKolkata, West Bengal
3DAKEDakhineswar (2)  21:39-21:40-1m1112.76910mERDist - 24 paraganas ( North ), West Bengal
4BWNBarddhaman Junction (8)X  22:57-23:02-5m11101.36034mERDist - Barddhaman, West Bengal
5GKHGuskara (2)  23:35-23:36-1m11134.24541mERDist - Bardhaman, West Bengal
6BHPBolpur Shantiniketan (3)X  00:01-00:06-5m12153.13259mERBolpur, West Bengal
7PNEPrantik (3)  00:14-00:15-1m12157.45748mERPrantik, West Bengal
8AMPAhmadpur Junction (3)  00:31-00:32-1m12172.65346mERDist - Birbhum, West Bengal
9SNTSainthia Junction (4)X  00:47-00:48-1m22185.86058mERDist - Birbhum, West Bengal
10RPHRampurhat (3)X  01:16-01:21-5m32213.85041mERDIST - Birbhum, West Bengal
11NHTNalhati Junction (4)X  01:38-01:40-2m32227.97048mERNalhati, West Bengal
12MRRMurarai (3)  01:54-01:55-1m12244.22836mERMurarai, West Bengal
13RJGRajgram (3)X  02:20-02:21-1m32255.84932mERRajgram, West Bengal
14PKRPakur (2)X  02:34-02:35-1m12266.43337mERDist:- Pakur, Jharkhand
15KLPKotalpukur (3)X  02:57-02:58-1m--2278.43740mERKotalpukur, Jharkhand
16BHWBarharwa Junction (3)X  03:21-03:26-5m12292.57736mERBarharwa, Jharkhand
17TPHTinpahar Junction (3)  03:39-03:40-1m12309.16445mERBamangawan, Jharkhand
18TLJTaljhari  03:49-03:51-2m--2318.87238mERTaljhari, Jharkhand
19SLJSakrigali Junction (3)  04:08-04:10-2m--2339.12345mERSakrigali, Jharkhand
20SBGSahibganj Junction (3)X  04:30-04:38-8m22346.97038mERSahibganj, Jharkhand
21MZCMirza Cheuki (3)  04:51-04:53-2m12362.05638mERBihar, Bihar
22PPTPirpainti (2)  05:02-05:04-2m--2370.44853mERBhagalpur, Bihar
23SVRPShivanarayanpur (2)  05:15-05:17-2m--2379.32647mERShivanarayanpur, Bihar
24BKSLBikram Shila (2)  05:25-05:27-2m--2382.82558mERBikram Shila, Bihar
25CLGKahalgaon (2)X  05:46-05:48-2m22390.83744mERBhagalpur, Bihar
26EKCEkchari (1)  05:55-05:57-2m12395.24937mERNational Highway 80, Bihar
27GGAGhoga (2)  06:04-06:06-2m--2400.95042mERGhoga, Bihar
28SBOSabaur (3)  06:21-06:23-2m--2413.33542mERSabour, Bihar
29BGPBhagalpur Junction (6)  06:36-06:51-15m--2420.94749mERBhagalpur, Bihar
30NATNathnagarX  06:57-06:59-2m--2425.53748mERBhagalpur, Bihar
31MPYMurarpur  07:07-07:08-1m--2430.54538mERMau, Bihar
32AKNAkbarnagar  07:15-07:17-2m--2435.75539mERTilakpur, Bihar
33SGGSultanGanj  07:28-07:29-1m--2445.84742mERSultanganj, Bihar
34BUPBariarpur (3)X  07:52-07:54-2m--2463.74242mERMunger, Bihar
35RPURRatanpurX  08:01-08:03-2m--2468.62246mERRatanpur Railway Station, Bihar
36JMPJamalpur Junction (4)X  08:20-08:35-15m--2474.94359mERJamalpur 06344-243101, Bihar
37DRTPDasharathpur  08:44-08:46-2m--2481.24748mERDharhara, Bihar
38DRHDharhara (2)X  08:53-08:55-2m--2486.75555mERDharhara, Bihar
39AHAAbhaipur  09:06-09:08-2m--2496.74952mERAbhaipur, Bihar
40KJHKajra (2)  09:17-09:19-2m--2504.01550mERLakhisarai District, Bihar
41KIULKiul Junction (5)X  10:22-10:30-8m--2519.71453mECRDist. Lakhisarai, Bihar
42LKRLuckeesarai Junction (2)X  10:36-10:38-2m--2521.15352mECRLakhisarai, Bihar
43BRYABarhiya (3)X  10:55-10:57-2m--2536.27047mECRBarahiya, Bihar
44HTZHathidah Junction (2)  11:05-11:07-2m22545.54250mECRMusahari, Bihar
45MKAMokama Junction (3)  11:19-11:21-2m--2553.98748mECRPatna, Bihar
46MORMorX  11:26-11:28-2m--2561.26246mECRMor, Bihar
47PHKPunarakh  11:36-11:38-2m--2569.46951mECRPunarakh, Bihar
48BARHBarh (3)X  11:47-11:49-2m--2579.86949mECRBarh, Bihar
49ATLAthmal Gola (2)O  11:57-11:59-2m--2589.04952mECRPatna, Bihar
50BKPBakhtiyarpur Junction (5)  12:10-12:12-2m--2598.16351mECRPatna, Bihar
51KWOKarauta (2)  12:18-12:20-2m--2604.47154mECRKarauta, Bihar
52KOOKhusropur (2)X  12:27-12:29-2m--2612.65352mECRPatna, Bihar
53HDEHardas Bigha  12:36-12:37-1m--2618.8553mECRFatwah, Bihar
54FUTFatwa (6)X  13:06-13:08-2m--2621.12153mECRPatna, Bihar
55PNCPatna Saheb (3)O  13:43-13:45-2m--2633.31259mECRPatna, Bihar
56GZHGulzarbagh (3)X  14:00-14:02-2m--2636.33255mECRPatna, Bihar
57RJPBRajendra Nagar Bihar (4)  14:10-14:12-2m--2640.62055mECRPatna 800001, Bihar
58PNBEPatna Junction (10)  14:20-14:30-10m42643.23657mECRPatna 800001, Bihar
59PWSPhulwari Sharif (3)  14:40-14:42-2m--2649.22658mECRPatna, Bihar
60DNRDanapur (5)X  14:50-15:00-10m--2652.69158mECRKhagaul, Bihar
61NEONeora (2)X  15:04-15:06-2m--2658.66161mECRNational Highway 98, Bihar
62SDESadisopur (2)  15:13-15:14-1m--2665.75164mECRSadisopur, Bihar
63BTABihta (2)X  15:19-15:21-2m--2669.95462mECRDistt: Patna, Bihar
64VHCHChakki Block Cabin  15:28-15:30-2m--2676.24963mECRNational Highway 30, Bihar
65KWRKoelwar (2)X  15:33-15:35-2m--2678.73665mECRNational Highway 30, Bihar
66KUAKulharia (2)  15:41-15:43-2m--2682.24061mECRChandi Sahar Rd, Bihar
67ARAAra Junction (3)  15:58-16:03-5m--2692.17463mECRarrah( 06182-233411), Bihar
68KRSKarisath (2)  16:11-16:13-2m--2702.07765mECRKarisath, Bihar
69BEABihiya (3)  16:22-16:24-2m--2713.55967mECRBehea, Bihar
70BYNBanahi (2)  16:30-16:32-2m--2719.56667mECRBanahi, Bihar
71RPRRaghunathpur (4)  16:40-16:42-2m--2728.35069mECRRaghunathpur, Bihar
72TWGTwining GanjX16:52-16:54-2m--2736.7-70mECRArrah Buxar Rd, Bihar
73DUREDumraon (3)X  16:54-16:56-2m--2744.34770mECRDumraon, Bihar
74BXRBuxar (3)  17:17-17:22-5m--2760.68267mECRBuxar, Bihar
75CSAChausa (2)X  17:30-17:32-2m--2771.54668mECRState Highway 14, Bihar
76GMRGahmar (2)  17:44-17:46-2m--2780.87068mECRDistt: Ghazipur, Uttar Pradesh
77BWHBhadaura (2)  17:53-17:55-2m--2789.04769mECRGhazipur, Uttar Pradesh
78DLNDildarnagar Junction (2)  18:05-18:10-5m--2796.88172mECRDildarnagar, Uttar Pradesh
79ZNAZamania (2)  18:20-18:22-2m--2810.32077mECRGhazipur, Uttar Pradesh
80SLDSakaldiha (2)XO  19:40-19:41-1m--2836.31981mECRState Highway 69, Uttar Pradesh
81MGSMughal Sarai Junction (8)X  20:40-20:50-10m32854.52083mECRMughalsarai 232101, Uttar Pradesh
82BSB•Varanasi Junction (9)•  21:40----2871.0-82mNRVaranasi 221002, Uttar Pradesh
Scroll to Top
Scroll to Bottom